createdAt,value
2022-09-20T00:00:49.025Z,96.99
2022-09-20T00:01:48.937Z,97.09
2022-09-20T00:02:48.930Z,96.89
2022-09-20T00:03:48.909Z,96.79
2022-09-20T00:04:48.959Z,96.89
2022-09-20T00:05:48.916Z,96.89
2022-09-20T00:06:48.890Z,96.89
2022-09-20T00:07:48.891Z,96.99
2022-09-20T00:08:48.881Z,97.04
2022-09-20T00:09:48.850Z,97.04
2022-09-20T00:10:48.860Z,96.94
2022-09-20T00:11:48.829Z,96.94
2022-09-20T00:12:48.850Z,96.79
2022-09-20T00:13:48.840Z,96.94
2022-09-20T00:14:48.804Z,96.94
2022-09-20T00:15:48.809Z,97.04
2022-09-20T00:16:48.837Z,96.94
2022-09-20T00:17:48.769Z,97.04
2022-09-20T00:18:48.791Z,97.04
2022-09-20T00:19:48.770Z,97.14
2022-09-20T00:20:48.743Z,97.14
2022-09-20T00:21:48.724Z,97.14
2022-09-20T00:22:48.742Z,97.14
2022-09-20T00:23:48.722Z,97.24
2022-09-20T00:24:49.192Z,97.24
2022-09-20T00:25:48.699Z,97.24
2022-09-20T00:26:48.689Z,97.24
2022-09-20T00:27:48.662Z,97.14
2022-09-20T00:28:48.678Z,97.14
2022-09-20T00:29:48.642Z,97.14
2022-09-20T00:30:48.644Z,97.14
2022-09-20T00:31:48.634Z,97.24
2022-09-20T00:32:48.622Z,97.24
2022-09-20T00:33:48.623Z,97.34
2022-09-20T00:34:48.597Z,97.34
2022-09-20T00:35:48.573Z,97.34
2022-09-20T00:36:48.575Z,97.24
2022-09-20T00:37:48.557Z,97.34
2022-09-20T00:38:48.576Z,97.24
2022-09-20T00:39:48.624Z,97.39
2022-09-20T00:40:48.535Z,97.49
2022-09-20T00:41:48.527Z,97.49
2022-09-20T00:42:48.514Z,97.49
2022-09-20T00:43:48.519Z,97.49
2022-09-20T00:44:48.495Z,97.60
2022-09-20T00:45:48.545Z,97.70
2022-09-20T00:46:48.476Z,97.60
2022-09-20T00:47:48.456Z,97.70
2022-09-20T00:48:48.466Z,97.70
2022-09-20T00:49:48.438Z,97.70
2022-09-20T00:50:48.436Z,97.70
2022-09-20T00:51:48.427Z,97.91
2022-09-20T00:52:48.415Z,97.80
2022-09-20T00:53:48.416Z,97.80
2022-09-20T00:54:48.387Z,98.00
2022-09-20T00:55:48.377Z,97.80
2022-09-20T00:56:48.401Z,97.91
2022-09-20T00:57:48.358Z,98.00
2022-09-20T00:58:48.352Z,98.00
2022-09-20T00:59:48.335Z,97.91
2022-09-20T01:00:48.361Z,97.80
2022-09-20T01:01:48.311Z,97.91
2022-09-20T01:02:48.347Z,97.91
2022-09-20T01:03:48.311Z,97.80
2022-09-20T01:04:48.277Z,97.80
2022-09-20T01:05:48.268Z,97.70
2022-09-20T01:06:48.249Z,97.80
2022-09-20T01:07:48.250Z,97.80
2022-09-20T01:08:48.268Z,97.91
2022-09-20T01:09:48.405Z,97.91
2022-09-20T01:10:48.321Z,97.80
2022-09-20T01:11:48.209Z,97.80
2022-09-20T01:12:48.199Z,97.80
2022-09-20T01:13:48.220Z,97.80
2022-09-20T01:14:48.178Z,97.91
2022-09-20T01:15:48.171Z,98.00
2022-09-20T01:16:48.255Z,97.91
2022-09-20T01:17:48.144Z,97.80
2022-09-20T01:18:48.172Z,97.80
2022-09-20T01:19:48.221Z,97.91
2022-09-20T01:20:48.121Z,97.74
2022-09-20T01:21:48.110Z,97.70
2022-09-20T01:22:48.102Z,97.74
2022-09-20T01:23:48.119Z,97.85
2022-09-20T01:24:48.068Z,97.74
2022-09-20T01:25:48.068Z,97.70
2022-09-20T01:26:48.059Z,97.60
2022-09-20T01:27:48.050Z,97.74
2022-09-20T01:28:48.053Z,97.85
2022-09-20T01:29:48.031Z,97.74
2022-09-20T01:30:48.012Z,97.70
2022-09-20T01:31:48.074Z,97.85
2022-09-20T01:32:47.994Z,97.74
2022-09-20T01:33:47.992Z,97.60
2022-09-20T01:34:47.992Z,97.74
2022-09-20T01:35:47.952Z,97.74
2022-09-20T01:36:48.016Z,97.74
2022-09-20T01:37:47.944Z,97.64
2022-09-20T01:38:47.948Z,97.64
2022-09-20T01:39:47.926Z,97.64
2022-09-20T01:40:47.964Z,97.44
2022-09-20T01:41:47.894Z,97.54
2022-09-20T01:42:47.894Z,97.54
2022-09-20T01:43:47.885Z,97.49
2022-09-20T01:44:47.864Z,97.44
2022-09-20T01:45:47.938Z,97.54
2022-09-20T01:46:47.845Z,97.64
2022-09-20T01:47:47.836Z,97.74
2022-09-20T01:48:47.834Z,97.85
2022-09-20T01:49:47.815Z,97.74
2022-09-20T01:50:47.825Z,97.74
2022-09-20T01:51:47.794Z,97.95
2022-09-20T01:52:47.793Z,97.95
2022-09-20T01:53:47.775Z,97.85
2022-09-20T01:54:47.768Z,97.95
2022-09-20T01:55:47.767Z,97.95
2022-09-20T01:56:47.743Z,97.95
2022-09-20T01:57:47.738Z,97.95
2022-09-20T01:58:57.422Z,97.95
2022-09-20T01:59:48.713Z,97.95
2022-09-20T02:00:47.738Z,97.85
2022-09-20T02:01:47.705Z,97.85
2022-09-20T02:02:47.747Z,97.95
2022-09-20T02:03:47.668Z,97.95
2022-09-20T02:04:47.690Z,97.95
2022-09-20T02:05:47.663Z,97.85
2022-09-20T02:06:47.641Z,97.95
2022-09-20T02:07:47.629Z,97.95
2022-09-20T02:08:47.628Z,97.85
2022-09-20T02:09:47.609Z,97.74
2022-09-20T02:10:47.636Z,97.85
2022-09-20T02:11:47.587Z,97.85
2022-09-20T02:12:47.584Z,97.85
2022-09-20T02:13:47.568Z,97.85
2022-09-20T02:14:47.575Z,97.85
2022-09-20T02:15:47.546Z,97.95
2022-09-20T02:16:47.572Z,97.95
2022-09-20T02:17:47.536Z,97.95
2022-09-20T02:18:47.530Z,97.95
2022-09-20T02:19:47.500Z,97.95
2022-09-20T02:20:47.501Z,97.95
2022-09-20T02:21:47.481Z,98.05
2022-09-20T02:22:47.628Z,98.05
2022-09-20T02:23:47.471Z,98.05
2022-09-20T02:24:47.449Z,98.16
2022-09-20T02:25:47.452Z,98.05
2022-09-20T02:26:47.451Z,98.05
2022-09-20T02:27:47.420Z,98.05
2022-09-20T02:28:47.413Z,97.95
2022-09-20T02:29:47.421Z,97.95
2022-09-20T02:30:47.393Z,97.95
2022-09-20T02:31:47.467Z,97.95
2022-09-20T02:32:47.391Z,97.95
2022-09-20T02:33:47.393Z,97.85
2022-09-20T02:34:47.352Z,97.95
2022-09-20T02:35:47.343Z,97.85
2022-09-20T02:36:47.333Z,97.85
2022-09-20T02:37:47.324Z,97.95
2022-09-20T02:38:47.323Z,97.95
2022-09-20T02:39:47.461Z,97.95
2022-09-20T02:40:47.478Z,97.95
2022-09-20T02:41:47.538Z,97.95
2022-09-20T02:42:48.277Z,97.85
2022-09-20T02:43:47.404Z,97.85
2022-09-20T02:44:47.253Z,97.74
2022-09-20T02:45:47.370Z,97.85
2022-09-20T02:46:47.225Z,97.85
2022-09-20T02:47:47.235Z,97.74
2022-09-20T02:48:47.204Z,97.85
2022-09-20T02:49:47.194Z,97.74
2022-09-20T02:50:47.175Z,97.74
2022-09-20T02:51:47.196Z,97.70
2022-09-20T02:52:47.204Z,97.70
2022-09-20T02:53:47.163Z,97.70
2022-09-20T02:54:47.137Z,97.70
2022-09-20T02:55:47.145Z,97.70
2022-09-20T02:56:47.124Z,97.70
2022-09-20T02:57:47.105Z,97.70
2022-09-20T02:58:47.096Z,97.70
2022-09-20T02:59:47.087Z,97.70
2022-09-20T03:00:47.150Z,97.70
2022-09-20T03:01:47.144Z,97.70
2022-09-20T03:02:47.062Z,97.70
2022-09-20T03:03:47.045Z,97.64
2022-09-20T03:04:47.045Z,97.70
2022-09-20T03:05:47.058Z,97.70
2022-09-20T03:06:47.017Z,97.74
2022-09-20T03:07:47.016Z,97.70
2022-09-20T03:08:46.993Z,97.70
2022-09-20T03:09:46.978Z,97.70
2022-09-20T03:10:46.974Z,97.74
2022-09-20T03:11:46.998Z,97.70
2022-09-20T03:12:46.949Z,97.64
2022-09-20T03:13:46.949Z,97.60
2022-09-20T03:14:46.937Z,97.74
2022-09-20T03:15:46.918Z,97.70
2022-09-20T03:16:51.915Z,97.74
2022-09-20T03:17:47.903Z,97.70
2022-09-20T03:18:46.895Z,97.74
2022-09-20T03:19:46.885Z,97.85
2022-09-20T03:20:46.871Z,97.95
2022-09-20T03:21:46.897Z,98.05
2022-09-20T03:22:46.853Z,98.05
2022-09-20T03:23:46.841Z,98.05
2022-09-20T03:24:46.848Z,98.05
2022-09-20T03:25:46.840Z,98.05
2022-09-20T03:26:46.811Z,98.05
2022-09-20T03:27:46.801Z,98.16
2022-09-20T03:28:46.820Z,98.16
2022-09-20T03:29:46.791Z,98.00
2022-09-20T03:30:46.779Z,98.05
2022-09-20T03:31:46.829Z,98.05
2022-09-20T03:32:46.732Z,98.05
2022-09-20T03:33:46.738Z,98.16
2022-09-20T03:34:46.735Z,98.16
2022-09-20T03:35:46.703Z,98.25
2022-09-20T03:36:46.692Z,98.16
2022-09-20T03:37:46.693Z,98.25
2022-09-20T03:38:46.673Z,98.25
2022-09-20T03:39:46.683Z,98.21
2022-09-20T03:40:46.923Z,98.25
2022-09-20T03:41:46.652Z,98.32
2022-09-20T03:42:46.592Z,98.21
2022-09-20T03:43:46.731Z,98.21
2022-09-20T03:44:46.656Z,98.11
2022-09-20T03:45:46.688Z,98.11
2022-09-20T03:46:46.600Z,98.11
2022-09-20T03:47:46.583Z,98.11
2022-09-20T03:48:46.593Z,98.11
2022-09-20T03:49:46.574Z,98.00
2022-09-20T03:50:46.564Z,98.00
2022-09-20T03:51:46.550Z,98.11
2022-09-20T03:52:46.534Z,98.00
2022-09-20T03:53:46.512Z,97.91
2022-09-20T03:54:46.474Z,97.80
2022-09-20T03:55:46.496Z,97.91
2022-09-20T03:56:46.498Z,97.86
2022-09-20T03:57:46.487Z,97.86
2022-09-20T03:58:46.465Z,97.91
2022-09-20T03:59:46.475Z,97.86
2022-09-20T04:00:46.487Z,98.00
2022-09-20T04:01:46.437Z,97.96
2022-09-20T04:02:46.522Z,97.96
2022-09-20T04:03:46.445Z,97.96
2022-09-20T04:04:46.433Z,97.96
2022-09-20T04:05:46.427Z,97.96
2022-09-20T04:06:46.395Z,97.86
2022-09-20T04:07:46.378Z,97.86
2022-09-20T04:08:46.366Z,97.96
2022-09-20T04:09:46.316Z,97.96
2022-09-20T04:10:46.286Z,97.96
2022-09-20T04:11:46.342Z,98.07
2022-09-20T04:12:46.329Z,97.96
2022-09-20T04:13:46.299Z,97.86
2022-09-20T04:14:46.330Z,97.86
2022-09-20T04:15:46.302Z,97.86
2022-09-20T04:16:46.344Z,97.86
2022-09-20T04:17:46.212Z,97.96
2022-09-20T04:18:46.198Z,97.86
2022-09-20T04:19:46.278Z,97.96
2022-09-20T04:20:46.197Z,97.86
2022-09-20T04:21:46.186Z,97.96
2022-09-20T04:22:46.198Z,97.86
2022-09-20T04:23:46.154Z,97.86
2022-09-20T04:24:46.179Z,97.96
2022-09-20T04:25:46.151Z,97.86
2022-09-20T04:26:46.120Z,97.96
2022-09-20T04:27:46.122Z,97.96
2022-09-20T04:28:46.111Z,97.75
2022-09-20T04:29:46.091Z,97.75
2022-09-20T04:30:46.080Z,97.86
2022-09-20T04:31:47.380Z,97.86
2022-09-20T04:32:46.069Z,97.86
2022-09-20T04:33:46.059Z,97.86
2022-09-20T04:34:46.104Z,97.75
2022-09-20T04:35:46.026Z,97.65
2022-09-20T04:36:46.022Z,97.75
2022-09-20T04:37:46.001Z,97.65
2022-09-20T04:38:46.022Z,97.65
2022-09-20T04:39:45.982Z,97.75
2022-09-20T04:40:46.034Z,97.86
2022-09-20T04:41:45.968Z,97.75
2022-09-20T04:42:45.960Z,97.65
2022-09-20T04:43:45.994Z,97.86
2022-09-20T04:44:45.924Z,97.86
2022-09-20T04:45:45.942Z,97.86
2022-09-20T04:46:45.913Z,97.86
2022-09-20T04:47:45.912Z,97.86
2022-09-20T04:48:45.917Z,97.75
2022-09-20T04:49:45.891Z,97.86
2022-09-20T04:50:45.885Z,97.86
2022-09-20T04:51:45.853Z,97.96
2022-09-20T04:52:45.858Z,97.96
2022-09-20T04:53:45.854Z,97.86
2022-09-20T04:54:45.843Z,97.86
2022-09-20T04:55:45.815Z,97.96
2022-09-20T04:56:45.804Z,97.96
2022-09-20T04:57:45.797Z,97.86
2022-09-20T04:58:45.805Z,97.96
2022-09-20T04:59:45.793Z,97.86
2022-09-20T05:00:45.784Z,97.75
2022-09-20T05:01:45.796Z,97.65
2022-09-20T05:02:45.808Z,97.75
2022-09-20T05:03:45.757Z,97.65
2022-09-20T05:04:45.727Z,97.86
2022-09-20T05:05:45.716Z,97.86
2022-09-20T05:06:45.697Z,97.96
2022-09-20T05:07:45.695Z,97.86
2022-09-20T05:08:45.726Z,97.86
2022-09-20T05:09:45.675Z,97.75
2022-09-20T05:10:45.668Z,97.75
2022-09-20T05:11:45.668Z,97.86
2022-09-20T05:12:45.650Z,97.86
2022-09-20T05:13:45.633Z,97.65
2022-09-20T05:14:45.655Z,97.61
2022-09-20T05:15:45.617Z,97.61
2022-09-20T05:16:45.669Z,97.61
2022-09-20T05:17:45.598Z,97.50
2022-09-20T05:18:45.592Z,97.40
2022-09-20T05:19:45.588Z,97.40
2022-09-20T05:20:45.555Z,97.30
2022-09-20T05:21:45.558Z,97.20
2022-09-20T05:22:45.536Z,97.20
2022-09-20T05:23:45.546Z,97.09
2022-09-20T05:24:45.519Z,96.99
2022-09-20T05:25:45.538Z,96.99
2022-09-20T05:26:45.497Z,96.79
2022-09-20T05:27:45.510Z,96.64
2022-09-20T05:28:45.484Z,96.23
2022-09-20T05:29:45.493Z,95.78
2022-09-20T05:30:45.541Z,94.30
2022-09-20T05:31:45.494Z,92.17
2022-09-20T05:32:45.464Z,89.94
2022-09-20T05:33:45.411Z,88.43
2022-09-20T05:34:45.409Z,86.86
2022-09-20T05:35:45.393Z,86.80
2022-09-20T05:36:45.392Z,88.17
2022-09-20T05:37:45.405Z,89.37
2022-09-20T05:38:45.378Z,89.43
2022-09-20T05:39:45.366Z,87.92
2022-09-20T05:40:45.363Z,86.65
2022-09-20T05:41:45.361Z,85.60
2022-09-20T05:42:45.332Z,84.23
2022-09-20T05:43:45.316Z,84.43
2022-09-20T05:44:45.292Z,83.48
2022-09-20T05:45:45.338Z,83.07
2022-09-20T05:46:45.282Z,82.52
2022-09-20T05:47:45.292Z,81.91
2022-09-20T05:48:45.260Z,82.15
2022-09-20T05:49:45.242Z,84.17
2022-09-20T05:50:45.273Z,84.78
2022-09-20T05:51:45.239Z,84.58
2022-09-20T05:52:45.228Z,85.22
2022-09-20T05:53:45.246Z,86.08
2022-09-20T05:54:45.200Z,87.20
2022-09-20T05:55:45.219Z,86.04
2022-09-20T05:56:45.192Z,83.68
2022-09-20T05:57:45.184Z,82.32
2022-09-20T05:58:45.185Z,80.72
2022-09-20T05:59:45.176Z,79.46
2022-09-20T06:00:45.161Z,78.20
2022-09-20T06:01:45.145Z,78.89
2022-09-20T06:02:45.134Z,80.24
2022-09-20T06:03:45.128Z,81.81
2022-09-20T06:04:45.106Z,82.90
2022-09-20T06:05:45.109Z,84.51
2022-09-20T06:06:45.089Z,85.88
2022-09-20T06:07:45.080Z,86.73
2022-09-20T06:08:45.084Z,87.45
2022-09-20T06:09:45.045Z,87.96
2022-09-20T06:10:45.036Z,88.26
2022-09-20T06:11:46.756Z,88.51
2022-09-20T06:12:45.042Z,89.17
2022-09-20T06:13:45.008Z,89.88
2022-09-20T06:14:45.010Z,90.43
2022-09-20T06:15:44.998Z,90.70
2022-09-20T06:16:44.983Z,90.59
2022-09-20T06:17:44.950Z,90.49
2022-09-20T06:18:44.964Z,90.49
2022-09-20T06:19:44.939Z,90.84
2022-09-20T06:20:44.927Z,90.80
2022-09-20T06:21:44.910Z,90.84
2022-09-20T06:22:44.932Z,90.84
2022-09-20T06:23:44.900Z,90.84
2022-09-20T06:24:44.898Z,90.74
2022-09-20T06:25:44.885Z,91.15
2022-09-20T06:26:44.906Z,91.35
2022-09-20T06:27:44.844Z,91.35
2022-09-20T06:28:44.843Z,91.35
2022-09-20T06:29:44.841Z,91.46
2022-09-20T06:30:44.924Z,91.46
2022-09-20T06:31:44.811Z,91.35
2022-09-20T06:32:44.812Z,91.35
2022-09-20T06:33:44.790Z,91.46
2022-09-20T06:34:44.781Z,91.25
2022-09-20T06:35:44.792Z,91.25
2022-09-20T06:36:44.762Z,91.25
2022-09-20T06:37:44.763Z,91.25
2022-09-20T06:38:44.757Z,91.66
2022-09-20T06:39:44.744Z,91.66
2022-09-20T06:40:44.713Z,91.46
2022-09-20T06:41:44.756Z,91.31
2022-09-20T06:42:44.710Z,91.20
2022-09-20T06:43:44.715Z,90.70
2022-09-20T06:44:44.669Z,90.59
2022-09-20T06:45:44.684Z,90.19
2022-09-20T06:46:44.658Z,90.19
2022-09-20T06:47:44.670Z,90.39
2022-09-20T06:48:44.656Z,90.29
2022-09-20T06:49:44.630Z,90.08
2022-09-20T06:50:44.608Z,89.88
2022-09-20T06:51:44.637Z,90.19
2022-09-20T06:52:44.616Z,90.29
2022-09-20T06:53:44.600Z,90.39
2022-09-20T06:54:44.608Z,90.39
2022-09-20T06:55:44.576Z,90.04
2022-09-20T06:56:44.583Z,89.84
2022-09-20T06:57:44.543Z,89.84
2022-09-20T06:58:44.550Z,89.53
2022-09-20T06:59:44.544Z,89.18
2022-09-20T07:00:44.540Z,89.18
2022-09-20T07:01:44.575Z,88.98
2022-09-20T07:02:44.512Z,88.88
2022-09-20T07:03:44.488Z,89.08
2022-09-20T07:04:44.502Z,88.78
2022-09-20T07:05:44.467Z,88.88
2022-09-20T07:06:44.458Z,89.12
2022-09-20T07:07:44.436Z,89.02
2022-09-20T07:08:44.442Z,89.23
2022-09-20T07:09:44.418Z,89.63
2022-09-20T07:10:44.418Z,89.84
2022-09-20T07:11:44.393Z,89.84
2022-09-20T07:12:44.380Z,89.78
2022-09-20T07:13:44.378Z,90.08
2022-09-20T07:14:44.403Z,90.90
2022-09-20T07:15:44.350Z,90.70
2022-09-20T07:16:44.440Z,90.70
2022-09-20T07:17:44.321Z,90.49
2022-09-20T07:18:44.354Z,90.29
2022-09-20T07:19:44.311Z,90.49
2022-09-20T07:20:44.305Z,90.70
2022-09-20T07:21:44.336Z,90.59
2022-09-20T07:22:44.281Z,90.70
2022-09-20T07:23:44.283Z,90.70
2022-09-20T07:24:44.251Z,90.80
2022-09-20T07:25:44.267Z,90.74
2022-09-20T07:26:44.232Z,91.05
2022-09-20T07:27:44.237Z,91.25
2022-09-20T07:28:44.217Z,91.35
2022-09-20T07:29:44.214Z,91.46
2022-09-20T07:30:44.229Z,91.25
2022-09-20T07:31:44.302Z,91.11
2022-09-20T07:32:44.180Z,90.90
2022-09-20T07:33:44.187Z,90.49
2022-09-20T07:34:44.156Z,89.73
2022-09-20T07:35:44.169Z,89.73
2022-09-20T07:36:44.125Z,89.63
2022-09-20T07:37:44.118Z,89.47
2022-09-20T07:38:44.103Z,89.78
2022-09-20T07:39:44.092Z,89.98
2022-09-20T07:40:44.104Z,90.08
2022-09-20T07:41:44.133Z,90.04
2022-09-20T07:42:44.096Z,89.63
2022-09-20T07:43:44.053Z,89.43
2022-09-20T07:44:44.046Z,89.32
2022-09-20T07:45:44.113Z,88.92
2022-09-20T07:46:44.015Z,88.57
2022-09-20T07:47:44.012Z,88.57
2022-09-20T07:48:43.998Z,88.37
2022-09-20T07:49:43.991Z,87.92
2022-09-20T07:50:44.005Z,87.82
2022-09-20T07:51:43.976Z,87.71
2022-09-20T07:52:43.960Z,87.10
2022-09-20T07:53:43.979Z,87.10
2022-09-20T07:54:43.941Z,86.86
2022-09-20T07:55:43.958Z,86.76
2022-09-20T07:56:43.918Z,86.65
2022-09-20T07:57:43.913Z,86.45
2022-09-20T07:58:46.322Z,86.76
2022-09-20T07:59:43.931Z,86.86
2022-09-20T08:00:43.915Z,86.96
2022-09-20T08:01:43.863Z,86.55
2022-09-20T08:02:43.881Z,86.10
2022-09-20T08:03:43.894Z,86.10
2022-09-20T08:04:43.851Z,85.80
2022-09-20T08:05:43.836Z,85.19
2022-09-20T08:06:43.812Z,85.39
2022-09-20T08:07:43.799Z,85.90
2022-09-20T08:08:43.790Z,85.45
2022-09-20T08:09:43.772Z,85.35
2022-09-20T08:10:43.786Z,84.70
2022-09-20T08:11:43.769Z,84.12
2022-09-20T08:14:44.733Z,84.70
2022-09-20T08:15:43.715Z,84.19
2022-09-20T08:16:43.805Z,83.54
2022-09-20T08:17:43.736Z,83.23
2022-09-20T08:18:43.705Z,83.07
2022-09-20T08:19:43.703Z,83.78
2022-09-20T08:20:43.679Z,84.12
2022-09-20T08:21:43.708Z,84.29
2022-09-20T08:22:43.667Z,83.68
2022-09-20T08:23:43.625Z,83.58
2022-09-20T08:24:43.622Z,83.68
2022-09-20T08:25:43.616Z,83.89
2022-09-20T08:26:43.657Z,83.23
2022-09-20T08:27:43.579Z,82.62
2022-09-20T08:28:43.602Z,82.38
2022-09-20T08:29:43.575Z,81.87
2022-09-20T08:30:43.552Z,81.87
2022-09-20T08:31:43.672Z,81.98
2022-09-20T08:32:43.557Z,81.77
2022-09-20T08:33:43.540Z,82.62
2022-09-20T08:34:43.505Z,82.82
2022-09-20T08:35:43.532Z,82.28
2022-09-20T08:36:43.526Z,81.84
2022-09-20T08:37:43.522Z,81.63
2022-09-20T08:39:59.842Z,81.73
2022-09-20T08:40:44.478Z,81.93
2022-09-20T08:41:43.468Z,81.73
2022-09-20T08:42:44.736Z,81.46
2022-09-20T08:43:45.497Z,81.67
2022-09-20T08:44:45.420Z,81.73
2022-09-20T08:45:43.477Z,81.43
2022-09-20T08:46:43.387Z,81.02
2022-09-20T08:47:43.404Z,81.43
2022-09-20T08:48:43.371Z,81.73
2022-09-20T08:49:46.169Z,81.43
2022-09-20T08:50:43.353Z,81.33
2022-09-20T08:51:48.490Z,81.19
2022-09-20T08:52:44.376Z,80.78
2022-09-20T08:53:48.793Z,80.33
2022-09-20T08:54:44.323Z,80.37
2022-09-20T08:55:43.292Z,80.44
2022-09-20T08:56:43.334Z,80.33
2022-09-20T08:57:43.376Z,80.54
2022-09-20T08:58:43.289Z,80.54
2022-09-20T08:59:43.265Z,79.72
2022-09-20T09:00:43.244Z,79.79
2022-09-20T09:01:43.248Z,79.79
2022-09-20T09:02:43.452Z,79.63
2022-09-20T09:03:43.224Z,79.86
2022-09-20T09:04:43.197Z,80.37
2022-09-20T09:05:43.211Z,80.13
2022-09-20T09:06:43.173Z,80.33
2022-09-20T09:07:43.186Z,79.99
2022-09-20T09:08:43.189Z,79.28
2022-09-20T09:09:43.155Z,79.25
2022-09-20T09:10:43.308Z,79.72
2022-09-20T09:11:45.753Z,78.81
2022-09-20T09:12:48.689Z,77.49
2022-09-20T09:13:44.139Z,77.90
2022-09-20T09:14:43.095Z,78.00
2022-09-20T09:15:43.082Z,77.45
2022-09-20T09:16:43.138Z,77.05
2022-09-20T09:17:43.067Z,77.15
2022-09-20T09:18:43.091Z,76.51
2022-09-20T09:19:43.058Z,76.71
2022-09-20T09:20:43.052Z,76.20
2022-09-20T09:21:43.038Z,76.17
2022-09-20T09:22:43.020Z,75.62
2022-09-20T09:23:43.018Z,75.01
2022-09-20T09:24:43.015Z,75.35
2022-09-20T09:25:43.028Z,76.51
2022-09-20T09:26:42.971Z,77.22
2022-09-20T09:27:42.966Z,76.81
2022-09-20T09:28:43.019Z,76.81
2022-09-20T09:29:42.961Z,76.51
2022-09-20T09:30:42.962Z,76.06
2022-09-20T09:31:42.964Z,76.10
2022-09-20T09:32:42.902Z,75.66
2022-09-20T09:33:42.949Z,75.22
2022-09-20T09:34:42.928Z,74.91
2022-09-20T09:35:42.872Z,74.21
2022-09-20T09:36:42.858Z,74.41
2022-09-20T09:37:42.861Z,73.39
2022-09-20T09:38:42.870Z,73.39
2022-09-20T09:39:42.864Z,74.21
2022-09-20T09:40:42.853Z,73.39
2022-09-20T09:41:42.816Z,74.41
2022-09-20T09:42:42.842Z,74.27
2022-09-20T09:43:42.822Z,73.97
2022-09-20T09:44:42.773Z,73.19
2022-09-20T09:45:42.774Z,72.81
2022-09-20T09:46:42.764Z,71.97
2022-09-20T09:47:42.755Z,72.92
2022-09-20T09:48:42.773Z,72.89
2022-09-20T09:49:42.735Z,72.34
2022-09-20T09:50:42.724Z,72.34
2022-09-20T09:51:42.705Z,71.37
2022-09-20T09:52:42.714Z,71.40
2022-09-20T09:53:42.728Z,71.91
2022-09-20T09:54:42.667Z,72.24
2022-09-20T09:55:42.656Z,72.31
2022-09-20T09:56:42.668Z,71.60
2022-09-20T09:57:42.642Z,71.77
2022-09-20T09:58:42.651Z,71.57
2022-09-20T09:59:42.618Z,72.11
2022-09-20T10:00:42.608Z,70.42
2022-09-20T10:01:42.665Z,71.33
2022-09-20T10:02:42.653Z,72.14
2022-09-20T10:03:42.608Z,70.39
2022-09-20T10:04:42.567Z,70.29
2022-09-20T10:05:42.573Z,70.08
2022-09-20T10:06:42.581Z,70.25
2022-09-20T10:07:42.572Z,70.59
2022-09-20T10:08:42.540Z,68.66
2022-09-20T10:09:42.517Z,70.59
2022-09-20T10:10:42.533Z,70.12
2022-09-20T10:11:42.491Z,70.15
2022-09-20T10:12:42.479Z,70.05
2022-09-20T10:13:42.502Z,69.34
2022-09-20T10:14:42.445Z,68.57
2022-09-20T10:15:42.462Z,69.98
2022-09-20T10:16:42.746Z,69.98
2022-09-20T10:17:42.458Z,70.09
2022-09-20T10:18:42.428Z,70.18
2022-09-20T10:19:42.441Z,69.68
2022-09-20T10:20:42.452Z,70.39
2022-09-20T10:21:42.413Z,69.89
2022-09-20T10:22:42.390Z,71.30
2022-09-20T10:24:43.421Z,69.34
2022-09-20T10:25:42.353Z,68.51
2022-09-20T10:26:42.325Z,67.49
2022-09-20T10:27:42.343Z,67.80
2022-09-20T10:28:42.337Z,68.43
2022-09-20T10:29:42.333Z,68.54
2022-09-20T10:30:42.363Z,67.86
2022-09-20T10:31:42.304Z,67.96
2022-09-20T10:32:42.278Z,68.50
2022-09-20T10:33:42.296Z,68.16
2022-09-20T10:34:42.259Z,67.25
2022-09-20T10:35:42.257Z,67.29
2022-09-20T10:36:42.223Z,68.63
2022-09-20T10:37:44.989Z,70.25
2022-09-20T10:38:43.217Z,70.86
2022-09-20T10:39:42.201Z,71.44
2022-09-20T10:40:42.220Z,71.26
2022-09-20T10:41:42.185Z,71.70
2022-09-20T10:42:42.169Z,72.21
2022-09-20T10:43:42.187Z,72.72
2022-09-20T10:44:42.141Z,72.96
2022-09-20T10:46:14.093Z,74.10
2022-09-20T10:46:43.168Z,74.65
2022-09-20T10:47:42.140Z,75.49
2022-09-20T10:48:42.120Z,76.81
2022-09-20T10:49:42.092Z,78.17
2022-09-20T10:50:42.072Z,79.12
2022-09-20T10:51:42.074Z,78.51
2022-09-20T10:52:42.104Z,79.83
2022-09-20T10:53:42.070Z,80.33
2022-09-20T10:54:42.032Z,80.94
2022-09-20T10:55:42.016Z,81.56
2022-09-20T10:56:42.012Z,82.17
2022-09-20T10:57:46.451Z,82.71
2022-09-20T10:58:42.012Z,82.92
2022-09-20T10:59:41.982Z,83.32
2022-09-20T11:00:42.014Z,83.62
2022-09-20T11:01:41.981Z,83.01
2022-09-20T11:02:41.952Z,83.53
2022-09-20T11:03:41.943Z,83.93
2022-09-20T11:04:41.939Z,84.23
2022-09-20T11:05:41.954Z,84.74
2022-09-20T11:06:41.915Z,84.44
2022-09-20T11:07:41.900Z,83.99
2022-09-20T11:08:41.929Z,84.23
2022-09-20T11:09:41.935Z,83.73
2022-09-20T11:10:41.886Z,84.23
2022-09-20T11:11:41.897Z,84.38
2022-09-20T11:12:41.874Z,84.48
2022-09-20T11:13:41.845Z,81.57
2022-09-20T11:14:41.825Z,79.00
2022-09-20T11:15:41.827Z,79.68
2022-09-20T11:16:41.892Z,85.57
2022-09-20T11:17:41.837Z,86.43
2022-09-20T11:18:41.838Z,87.90
2022-09-20T11:19:41.805Z,89.17
2022-09-20T11:20:41.752Z,89.78
2022-09-20T11:21:41.764Z,89.17
2022-09-20T11:22:41.767Z,90.19
2022-09-20T11:23:41.729Z,90.80
2022-09-20T11:24:41.714Z,90.29
2022-09-20T11:25:41.709Z,91.41
2022-09-20T11:26:41.721Z,90.80
2022-09-20T11:27:41.679Z,91.52
2022-09-20T11:28:41.669Z,91.92
2022-09-20T11:29:41.688Z,91.92
2022-09-20T11:30:41.678Z,91.00
2022-09-20T11:31:41.736Z,92.23
2022-09-20T11:32:41.639Z,93.05
2022-09-20T11:33:41.736Z,93.62
2022-09-20T11:34:41.631Z,92.39
2022-09-20T11:35:41.606Z,92.49
2022-09-20T11:36:41.609Z,92.69
2022-09-20T11:37:41.601Z,92.86
2022-09-20T11:38:41.573Z,92.86
2022-09-20T11:39:41.651Z,93.47
2022-09-20T11:40:41.629Z,92.91
2022-09-20T11:41:41.564Z,92.41
2022-09-20T11:42:41.545Z,92.50
2022-09-20T11:43:41.558Z,92.05
2022-09-20T11:44:41.522Z,90.53
2022-09-20T11:45:41.550Z,90.12
2022-09-20T11:46:41.500Z,89.47
2022-09-20T11:47:54.638Z,88.45
2022-09-20T11:48:42.462Z,88.04
2022-09-20T11:49:41.470Z,87.63
2022-09-20T11:50:41.462Z,88.10
2022-09-20T11:51:41.454Z,86.88
2022-09-20T11:52:41.695Z,87.08
2022-09-20T11:53:41.409Z,87.49
2022-09-20T11:54:41.603Z,86.16
2022-09-20T11:55:41.599Z,86.88
2022-09-20T11:56:41.382Z,87.08
2022-09-20T11:57:41.386Z,85.75
2022-09-20T11:58:41.383Z,86.06
2022-09-20T11:59:41.406Z,85.86
2022-09-20T12:00:41.344Z,86.37
2022-09-20T12:01:41.352Z,85.05
2022-09-20T12:02:41.411Z,85.45
2022-09-20T12:03:41.364Z,85.66
2022-09-20T12:04:41.704Z,85.75
2022-09-20T12:05:41.327Z,85.86
2022-09-20T12:06:41.338Z,85.86
2022-09-20T12:07:41.270Z,85.92
2022-09-20T12:08:41.286Z,85.37
2022-09-20T12:09:41.260Z,83.40
2022-09-20T12:10:41.242Z,82.68
2022-09-20T12:11:41.226Z,82.34
2022-09-20T12:12:41.255Z,82.04
2022-09-20T12:13:41.222Z,82.75
2022-09-20T12:14:41.368Z,83.50
2022-09-20T12:15:41.297Z,83.91
2022-09-20T12:16:41.229Z,83.76
2022-09-20T12:17:41.187Z,83.46
2022-09-20T12:18:41.159Z,82.71
2022-09-20T12:19:41.148Z,82.57
2022-09-20T12:20:41.129Z,82.33
2022-09-20T12:21:41.113Z,82.43
2022-09-20T12:22:41.101Z,81.68
2022-09-20T12:23:41.116Z,81.48
2022-09-20T12:24:45.344Z,81.54
2022-09-20T12:25:41.082Z,81.44
2022-09-20T12:26:41.061Z,80.79
2022-09-20T12:27:41.054Z,80.43
2022-09-20T12:28:41.055Z,82.29
2022-09-20T12:29:41.032Z,81.68
2022-09-20T12:30:41.024Z,81.78
2022-09-20T12:31:41.058Z,82.19
2022-09-20T12:32:41.114Z,82.45
2022-09-20T12:33:40.987Z,83.17
2022-09-20T12:34:41.009Z,83.31
2022-09-20T12:35:40.970Z,82.70
2022-09-20T12:36:41.029Z,81.95
2022-09-20T12:37:40.952Z,82.15
2022-09-20T12:38:40.957Z,82.01
2022-09-20T12:39:40.925Z,81.87
2022-09-20T12:40:40.960Z,80.41
2022-09-20T12:41:40.958Z,80.11
2022-09-20T12:42:40.998Z,80.45
2022-09-20T12:43:40.895Z,79.74
2022-09-20T12:44:40.896Z,79.13
2022-09-20T12:45:40.942Z,78.19
2022-09-20T12:46:40.856Z,79.04
2022-09-20T12:47:40.857Z,79.11
2022-09-20T12:48:40.828Z,78.36
2022-09-20T12:49:40.816Z,78.02
2022-09-20T12:50:40.816Z,76.87
2022-09-20T12:51:40.797Z,76.26
2022-09-20T12:52:40.805Z,76.26
2022-09-20T12:53:40.905Z,75.52
2022-09-20T12:54:40.789Z,75.62
2022-09-20T12:55:40.777Z,75.25
2022-09-20T12:56:40.772Z,75.35